• Join FlightAware (Why Join?)
  • Login
  • US Flag 
03:19PM EDT


 

Airport Tracker/Info


-or-


 

Live Flight TrackerFlight Track Log ✈ CDG4879 ✈ 20-Aug-2013 ✈ ZSWY / WUS - ZLXY / XIY

Flight Track Log - Related Links

Times and Time Zones

All times are in EDT time to prevent confusion due to time zone crossing. See the CDG4879 flight status page for this flight to view local times or setup timezone preferences in your user account.

Time Position Orientation Groundspeed Altitude Reporting Facility
EDT Latitude Longitude Course Direction KTS MPH feet Rate Location/Type
10:06PM 28.1284 117.4766 313° West  Level Estimated
10:07PM 28.1816 117.4107 312° West  Level Estimated
10:08PM 28.2347 117.3448 312° West  Level Estimated
10:09PM 28.2878 117.2788 312° West  Level Estimated
10:10PM 28.3409 117.2127 312° West  Level Estimated
10:11PM 28.3940 117.1465 312° West  Level Estimated
10:12PM 28.4470 117.0803 312° West  Level Estimated
10:13PM 28.5000 117.0140 312° West  Level Estimated
10:14PM 28.5529 116.9477 312° West  Level Estimated
10:15PM 28.6058 116.8813 312° West  Level Estimated
10:16PM 28.6587 116.8148 312° West  Level Estimated
10:17PM 28.7115 116.7482 312° West  Level Estimated
10:18PM 28.7644 116.6816 312° West  Level Estimated
10:19PM 28.8171 116.6149 312° West  Level Estimated
10:20PM 28.8699 116.5482 312° West  Level Estimated
10:21PM 28.9226 116.4814 312° West  Level Estimated
10:22PM 28.9753 116.4145 312° West  Level Estimated
10:23PM 29.0280 116.3475 312° West  Level Estimated
10:24PM 29.0806 116.2805 312° West  Level Estimated
10:25PM 29.1332 116.2134 312° West  Level Estimated
10:26PM 29.1857 116.1462 312° West  Level Estimated
10:27PM 29.2382 116.0790 312° West  Level Estimated
10:28PM 29.2907 116.0117 312° West  Level Estimated
10:29PM 29.3432 115.9443 312° West  Level Estimated
10:30PM 29.3956 115.8769 312° West  Level Estimated
10:31PM 29.4480 115.8094 312° West  Level Estimated
10:32PM 29.5003 115.7418 312° West  Level Estimated
10:33PM 29.5526 115.6741 312° West  Level Estimated
10:34PM 29.6049 115.6064 312° West  Level Estimated
10:35PM 29.6572 115.5386 312° West  Level Estimated
10:36PM 29.7094 115.4708 312° West  Level Estimated
10:37PM 29.7616 115.4028 312° West  Level Estimated
10:38PM 29.8137 115.3348 311° West  Level Estimated
10:39PM 29.8658 115.2668 311° West  Level Estimated
10:40PM 29.9179 115.1986 311° West  Level Estimated
10:41PM 29.9699 115.1304 311° West  Level Estimated
10:42PM 30.0219 115.0621 311° West  Level Estimated
10:43PM 30.0739 114.9938 311° West  Level Estimated
10:44PM 30.1258 114.9254 311° West  Level Estimated
10:45PM 30.1777 114.8569 311° West  Level Estimated
10:46PM 30.2296 114.7883 311° West  Level Estimated
10:47PM 30.2814 114.7197 311° West  Level Estimated
10:48PM 30.3332 114.6509 311° West  Level Estimated
10:49PM 30.3849 114.5821 311° West  Level Estimated
10:50PM 30.4367 114.5133 311° West  Level Estimated
10:51PM 30.4883 114.4443 311° West  Level Estimated
10:52PM 30.5400 114.3753 311° West  Level Estimated
10:53PM 30.5916 114.3063 311° West  Level Estimated
10:54PM 30.6432 114.2371 311° West  Level Estimated
10:55PM 30.6947 114.1679 311° West  Level Estimated
10:56PM 30.7462 114.0986 311° West  Level Estimated
10:57PM 30.7977 114.0292 311° West  Level Estimated
10:58PM 30.8491 113.9597 311° West  Level Estimated
10:59PM 30.9005 113.8902 311° West  Level Estimated
11:00PM 30.9518 113.8206 311° West  Level Estimated
11:01PM 31.0031 113.7509 311° West  Level Estimated
11:02PM 31.0544 113.6812 311° West  Level Estimated
11:03PM 31.1056 113.6113 311° West  Level Estimated
11:04PM 31.1569 113.5414 311° West  Level Estimated
11:05PM 31.2080 113.4715 311° West  Level Estimated
11:06PM 31.2591 113.4014 310° West  Level Estimated
11:07PM 31.3102 113.3313 310° West  Level Estimated
11:08PM 31.3613 113.2611 310° West  Level Estimated
11:09PM 31.4123 113.1908 310° West  Level Estimated
11:10PM 31.4632 113.1204 310° West  Level Estimated
11:11PM 31.5142 113.0500 310° West  Level Estimated
11:12PM 31.5651 112.9795 310° West  Level Estimated
11:13PM 31.6159 112.9089 310° West  Level Estimated
11:14PM 31.6667 112.8382 310° West  Level Estimated
11:15PM 31.7175 112.7675 310° West  Level Estimated
11:16PM 31.7683 112.6967 310° West  Level Estimated
11:17PM 31.8190 112.6258 310° West  Level Estimated
11:18PM 31.8696 112.5548 310° West  Level Estimated
11:19PM 31.9202 112.4837 310° West  Level Estimated
11:20PM 31.9708 112.4126 310° West  Level Estimated
11:21PM 32.0214 112.3414 310° West  Level Estimated
11:22PM 32.0719 112.2701 310° West  Level Estimated
11:23PM 32.1223 112.1988 310° West  Level Estimated
11:24PM 32.1727 112.1273 310° West  Level Estimated
11:25PM 32.2231 112.0558 310° West  Level Estimated
11:26PM 32.2735 111.9842 310° West  Level Estimated
11:27PM 32.3238 111.9125 310° West  Level Estimated
11:28PM 32.3740 111.8407 310° West  Level Estimated
11:29PM 32.4243 111.7689 310° West  Level Estimated
11:30PM 32.4744 111.6970 310° West  Level Estimated
11:31PM 32.5246 111.6250 310° West  Level Estimated
11:32PM 32.5747 111.5529 310° West  Level Estimated
11:33PM 32.6247 111.4807 309° West  Level Estimated
11:34PM 32.6747 111.4085 309° West  Level Estimated
11:35PM 32.7247 111.3361 309° West  Level Estimated
11:36PM 32.7746 111.2637 309° West  Level Estimated
11:37PM 32.8245 111.1912 309° West  Level Estimated
11:38PM 32.8744 111.1187 309° West  Level Estimated
11:39PM 32.9242 111.0460 309° West  Level Estimated
11:40PM 32.9739 110.9733 309° West  Level Estimated
11:41PM 33.0237 110.9005 309° West  Level Estimated
11:42PM 33.0733 110.8276 309° West  Level Estimated
11:43PM 33.1230 110.7546 309° West  Level Estimated
11:44PM 33.1726 110.6815 309° West  Level Estimated
11:45PM 33.2221 110.6084 309° West  Level Estimated
11:46PM 33.2716 110.5351 309° West  Level Estimated
11:47PM 33.3211 110.4618 309° West  Level Estimated
11:48PM 33.3705 110.3885 309° West  Level Estimated
11:49PM 33.4199 110.3150 309° West  Level Estimated
11:50PM 33.4692 110.2414 309° West  Level Estimated
11:51PM 33.5185 110.1678 309° West  Level Estimated
11:52PM 33.5678 110.0940 309° West  Level Estimated
11:53PM 33.6170 110.0202 309° West  Level Estimated
11:54PM 33.6661 109.9463 309° West  Level Estimated
11:55PM 33.7153 109.8723 309° West  Level Estimated
11:56PM 33.7643 109.7983 309° West  Level Estimated
11:57PM 33.8134 109.7241 309° West  Level Estimated
11:58PM 33.8623 109.6499 308° West  Level Estimated
11:59PM 33.9113 109.5756 308° West  Level Estimated
12:00AM 33.9602 109.5012 308° West  Level Estimated
12:01AM 34.0090 109.4267 308° West  Level Estimated
12:02AM 34.0578 109.3521 308° West  Level Estimated
12:03AM 34.1066 109.2774 308° West  Level Estimated
12:04AM 34.1553 109.2027 308° West  Level Estimated
12:05AM 34.2040 109.1278 308° West  Level Estimated
12:06AM 34.2526 109.0529 308° West  Level Estimated
12:07AM 34.3012 108.9779 308° West  Level Estimated
12:08AM 34.3497 108.9028 308° West  Level Estimated
12:09AM 34.3982 108.8276 308° West  Level Estimated
12:10AM 34.4466 108.7523 308° West  Level Estimated